Aérodrome :
LOGIN :

S'inscrire | Disclaimer

   EN    FR    IT 

 










Légende :    VFR   VFR Marginal   IFR   IFR Intensif   IFR Très Intensif
Visi : 
Plafond : 
>= 8 km
>= 3000ft
5 à 8 km
1000 à 3000 ft
1500m à 5 km
500 à 1000 ft
800 à 1500m
200 à 500 ft
< 800m
< 200 ft
Symboles :   Orages  Brouillard  Fortes neiges  Fortes précipitations  Vent > 20 kt
SIGMETs :   Divers  Orages  Givrage  Turbulence  Onde Orograph.  Cendres Volcan.







- Altitude de l'aérodrome : 247 ft
- Code IATA : BLL


EKBI - Billund

DERNIER METAR :
  • 211950Z AUTO 12003KT 9999 NCD 07/00 Q1021

METARs EXPIRÉS :
  • 211920Z AUTO 10001KT 9999 NCD 09/00 Q1021
  • 211850Z AUTO 16003KT 9999 NCD 12/01 Q1021
  • 211820Z AUTO 15004KT 9999 NCD 15/00 Q1021
  • 211750Z AUTO 14006KT 9999 NCD 16/00 Q1021
  • 211720Z AUTO 12009KT 9999 NCD 17/01 Q1021

TAF TAF EKBI
Valide du 21 à 18h jusqu'au 22 à 18h UTC


211701Z 2118/2218 17005KT CAVOK
BECMG 2205/2208 11010KT
TEMPO 2212/2218 11015G28KT
Pas de NOTAMs connus pour ce terrain.



MET'MAP, la Météo Aéronautique d'un coup d'oeil ! - Copyright ORBIFLY Décembre 2007 - Disclaimer

ORBIFLY MET'MAP TEAM :

Programmation & Développement : Alexandra Zaïnal
Conception & Développement : Baudouin d'Aumeries
Co-Programmation & Développement : Marc-Olivier Méhu
Soutien technique & logistique : Manuel Goepfert

Contact : metmap@orbifly.com




SOURCES & CREDITS :

   NOAA